Ban Phai, Thailand
Current Conditions -  °F | °C
As of 9:00 PM on Monday 22 Dec 2014 (Local Time) from VTUK Reporting Station
Clear Clear  
Wind Chill: 68°   Ceiling: Unl
Heat Index: 68°   Visibility: 6mi
Dew Point: 50°   Wind: 7mph
Humidity: 52%   Direction: 70°ENE
Pressure: 30.03"   Gusts: NA
Location:  16.06°N, 102.73°E
Report Text: VTUK 221400Z 07006KT 9000 NSC 20/10 Q1017 A3003 NOSIG
Loading
Personal Weather Stations






























Interactive Weather Map New forecast layout! Learn more

10-Day Weather Forecast

Advertisements
Track Severe Weather on mobile